sensor_id;sensor_type;location;lat;lon;timestamp;temperature;humidity
1570;DHT22;778;50.120;8.698;2023-07-20T00:00:00;21.60;87.40
1570;DHT22;778;50.120;8.698;2023-07-20T00:02:39;21.70;89.00
1570;DHT22;778;50.120;8.698;2023-07-20T00:05:07;21.50;89.80
1570;DHT22;778;50.120;8.698;2023-07-20T00:07:36;21.50;90.00
1570;DHT22;778;50.120;8.698;2023-07-20T00:10:05;21.50;89.70
1570;DHT22;778;50.120;8.698;2023-07-20T00:12:35;21.40;90.20
1570;DHT22;778;50.120;8.698;2023-07-20T00:15:05;21.40;90.40
1570;DHT22;778;50.120;8.698;2023-07-20T00:17:33;21.40;91.10
1570;DHT22;778;50.120;8.698;2023-07-20T00:20:05;21.50;90.80
1570;DHT22;778;50.120;8.698;2023-07-20T00:22:34;21.50;91.20
1570;DHT22;778;50.120;8.698;2023-07-20T00:25:03;21.30;91.50
1570;DHT22;778;50.120;8.698;2023-07-20T00:27:32;21.30;91.90
1570;DHT22;778;50.120;8.698;2023-07-20T00:30:03;21.30;92.20
1570;DHT22;778;50.120;8.698;2023-07-20T00:32:32;21.30;92.40
1570;DHT22;778;50.120;8.698;2023-07-20T00:35:00;21.30;93.30
1570;DHT22;778;50.120;8.698;2023-07-20T00:37:29;21.20;93.90
1570;DHT22;778;50.120;8.698;2023-07-20T00:39:58;21.20;93.80
1570;DHT22;778;50.120;8.698;2023-07-20T00:42:27;21.20;94.90
1570;DHT22;778;50.120;8.698;2023-07-20T00:44:55;21.20;94.90
1570;DHT22;778;50.120;8.698;2023-07-20T00:47:26;21.30;95.20
1570;DHT22;778;50.120;8.698;2023-07-20T00:49:55;21.30;95.40
1570;DHT22;778;50.120;8.698;2023-07-20T00:52:25;21.30;95.60
1570;DHT22;778;50.120;8.698;2023-07-20T00:54:54;21.30;96.10
1570;DHT22;778;50.120;8.698;2023-07-20T00:57:24;21.20;97.20
1570;DHT22;778;50.120;8.698;2023-07-20T00:59:53;21.10;96.50
1570;DHT22;778;50.120;8.698;2023-07-20T01:02:24;21.00;97.60
1570;DHT22;778;50.120;8.698;2023-07-20T01:04:53;21.00;97.80
1570;DHT22;778;50.120;8.698;2023-07-20T01:07:25;20.90;99.00
1570;DHT22;778;50.120;8.698;2023-07-20T01:10:01;20.90;98.90
1570;DHT22;778;50.120;8.698;2023-07-20T01:12:40;21.00;99.30
1570;DHT22;778;50.120;8.698;2023-07-20T01:15:10;20.90;99.40
1570;DHT22;778;50.120;8.698;2023-07-20T01:17:40;20.90;99.60
1570;DHT22;778;50.120;8.698;2023-07-20T01:20:12;20.90;99.90
1570;DHT22;778;50.120;8.698;2023-07-20T01:23:01;20.90;99.90
1570;DHT22;778;50.120;8.698;2023-07-20T01:25:52;20.80;99.90
1570;DHT22;778;50.120;8.698;2023-07-20T01:28:41;20.70;99.90
1570;DHT22;778;50.120;8.698;2023-07-20T01:31:25;20.60;99.90
1570;DHT22;778;50.120;8.698;2023-07-20T01:33:58;20.60;99.90
1570;DHT22;778;50.120;8.698;2023-07-20T01:36:31;20.50;99.90
1570;DHT22;778;50.120;8.698;2023-07-20T01:39:02;20.50;99.90
1570;DHT22;778;50.120;8.698;2023-07-20T01:41:31;20.60;99.90
1570;DHT22;778;50.120;8.698;2023-07-20T01:44:01;20.60;99.90
1570;DHT22;778;50.120;8.698;2023-07-20T01:46:33;20.60;99.90
1570;DHT22;778;50.120;8.698;2023-07-20T01:49:02;20.50;99.90
1570;DHT22;778;50.120;8.698;2023-07-20T01:51:31;20.50;99.90
1570;DHT22;778;50.120;8.698;2023-07-20T01:54:00;20.50;99.90
1570;DHT22;778;50.120;8.698;2023-07-20T01:56:28;20.40;99.90
1570;DHT22;778;50.120;8.698;2023-07-20T01:58:56;20.50;99.90
1570;DHT22;778;50.120;8.698;2023-07-20T02:01:25;20.40;99.90
1570;DHT22;778;50.120;8.698;2023-07-20T02:03:56;20.10;99.90
1570;DHT22;778;50.120;8.698;2023-07-20T02:06:25;20.20;99.90
1570;DHT22;778;50.120;8.698;2023-07-20T02:08:53;20.10;99.90
1570;DHT22;778;50.120;8.698;2023-07-20T02:11:22;20.30;99.90
1570;DHT22;778;50.120;8.698;2023-07-20T02:13:50;20.20;99.90
1570;DHT22;778;50.120;8.698;2023-07-20T02:16:19;20.20;99.90
1570;DHT22;778;50.120;8.698;2023-07-20T02:18:48;20.10;99.90
1570;DHT22;778;50.120;8.698;2023-07-20T02:21:17;20.10;99.90
1570;DHT22;778;50.120;8.698;2023-07-20T02:23:46;20.00;99.90
1570;DHT22;778;50.120;8.698;2023-07-20T02:26:14;20.00;99.90
1570;DHT22;778;50.120;8.698;2023-07-20T02:28:43;20.00;99.90
1570;DHT22;778;50.120;8.698;2023-07-20T02:31:12;20.00;99.90
1570;DHT22;778;50.120;8.698;2023-07-20T02:33:40;19.90;99.90
1570;DHT22;778;50.120;8.698;2023-07-20T02:36:09;19.90;99.90
1570;DHT22;778;50.120;8.698;2023-07-20T02:38:38;19.90;99.90
1570;DHT22;778;50.120;8.698;2023-07-20T02:41:07;19.90;99.90
1570;DHT22;778;50.120;8.698;2023-07-20T02:43:35;19.80;99.90
1570;DHT22;778;50.120;8.698;2023-07-20T02:46:04;19.90;99.90
1570;DHT22;778;50.120;8.698;2023-07-20T02:48:32;19.80;99.90
1570;DHT22;778;50.120;8.698;2023-07-20T02:51:00;19.90;99.90
1570;DHT22;778;50.120;8.698;2023-07-20T02:53:29;19.90;99.90
1570;DHT22;778;50.120;8.698;2023-07-20T02:55:59;20.10;99.90
1570;DHT22;778;50.120;8.698;2023-07-20T02:58:27;19.90;99.90
1570;DHT22;778;50.120;8.698;2023-07-20T03:00:55;19.90;99.90
1570;DHT22;778;50.120;8.698;2023-07-20T03:03:24;19.90;99.90
1570;DHT22;778;50.120;8.698;2023-07-20T03:05:52;19.90;99.90
1570;DHT22;778;50.120;8.698;2023-07-20T03:08:21;19.80;99.90
1570;DHT22;778;50.120;8.698;2023-07-20T03:10:51;20.00;99.90
1570;DHT22;778;50.120;8.698;2023-07-20T03:13:20;20.00;99.90
1570;DHT22;778;50.120;8.698;2023-07-20T03:15:52;19.90;99.90
1570;DHT22;778;50.120;8.698;2023-07-20T03:18:22;19.80;99.90
1570;DHT22;778;50.120;8.698;2023-07-20T03:20:50;19.70;99.90
1570;DHT22;778;50.120;8.698;2023-07-20T03:23:19;19.80;99.90
1570;DHT22;778;50.120;8.698;2023-07-20T03:25:47;19.80;99.90
1570;DHT22;778;50.120;8.698;2023-07-20T03:28:15;19.80;99.90
1570;DHT22;778;50.120;8.698;2023-07-20T03:30:45;19.80;99.90
1570;DHT22;778;50.120;8.698;2023-07-20T03:33:13;19.90;99.90
1570;DHT22;778;50.120;8.698;2023-07-20T03:35:42;19.80;99.90
1570;DHT22;778;50.120;8.698;2023-07-20T03:38:11;19.80;99.90
1570;DHT22;778;50.120;8.698;2023-07-20T03:40:39;19.70;99.90
1570;DHT22;778;50.120;8.698;2023-07-20T03:43:18;19.70;99.90
1570;DHT22;778;50.120;8.698;2023-07-20T03:45:48;19.70;99.90
1570;DHT22;778;50.120;8.698;2023-07-20T03:48:17;19.60;99.90
1570;DHT22;778;50.120;8.698;2023-07-20T03:50:47;19.60;99.90
1570;DHT22;778;50.120;8.698;2023-07-20T03:53:17;19.70;99.90
1570;DHT22;778;50.120;8.698;2023-07-20T03:55:45;19.60;99.90
1570;DHT22;778;50.120;8.698;2023-07-20T03:58:15;19.60;99.90
1570;DHT22;778;50.120;8.698;2023-07-20T04:00:45;19.60;99.90
1570;DHT22;778;50.120;8.698;2023-07-20T04:03:15;19.50;99.90
1570;DHT22;778;50.120;8.698;2023-07-20T04:05:44;19.50;99.90
1570;DHT22;778;50.120;8.698;2023-07-20T04:08:13;19.50;99.90
1570;DHT22;778;50.120;8.698;2023-07-20T04:10:44;19.50;99.90
1570;DHT22;778;50.120;8.698;2023-07-20T04:13:12;19.60;99.90
1570;DHT22;778;50.120;8.698;2023-07-20T04:15:42;19.60;99.90
1570;DHT22;778;50.120;8.698;2023-07-20T04:18:10;19.60;99.90
1570;DHT22;778;50.120;8.698;2023-07-20T04:20:40;19.50;99.90
1570;DHT22;778;50.120;8.698;2023-07-20T04:23:09;19.30;99.90
1570;DHT22;778;50.120;8.698;2023-07-20T04:25:39;19.30;99.90
1570;DHT22;778;50.120;8.698;2023-07-20T04:28:11;19.30;99.90
1570;DHT22;778;50.120;8.698;2023-07-20T04:30:44;19.30;99.90
1570;DHT22;778;50.120;8.698;2023-07-20T04:33:13;19.20;99.90
1570;DHT22;778;50.120;8.698;2023-07-20T04:35:48;19.20;99.90
1570;DHT22;778;50.120;8.698;2023-07-20T04:38:21;19.10;99.90
1570;DHT22;778;50.120;8.698;2023-07-20T04:41:01;19.10;99.90
1570;DHT22;778;50.120;8.698;2023-07-20T04:43:33;19.00;99.90
1570;DHT22;778;50.120;8.698;2023-07-20T04:46:02;18.90;99.90
1570;DHT22;778;50.120;8.698;2023-07-20T04:48:33;19.00;99.90
1570;DHT22;778;50.120;8.698;2023-07-20T04:51:03;19.10;99.90
1570;DHT22;778;50.120;8.698;2023-07-20T04:53:32;19.20;99.90
1570;DHT22;778;50.120;8.698;2023-07-20T04:56:01;19.10;99.90
1570;DHT22;778;50.120;8.698;2023-07-20T04:58:29;19.10;99.90
1570;DHT22;778;50.120;8.698;2023-07-20T05:00:57;19.30;99.90
1570;DHT22;778;50.120;8.698;2023-07-20T05:03:26;19.60;99.90
1570;DHT22;778;50.120;8.698;2023-07-20T05:05:55;19.90;99.90
1570;DHT22;778;50.120;8.698;2023-07-20T05:08:25;20.00;99.90
1570;DHT22;778;50.120;8.698;2023-07-20T05:10:54;20.00;99.90
1570;DHT22;778;50.120;8.698;2023-07-20T05:13:23;19.80;99.90
1570;DHT22;778;50.120;8.698;2023-07-20T05:15:52;19.90;99.90
1570;DHT22;778;50.120;8.698;2023-07-20T05:18:21;20.30;99.90
1570;DHT22;778;50.120;8.698;2023-07-20T05:20:50;20.50;99.90
1570;DHT22;778;50.120;8.698;2023-07-20T05:23:19;20.70;99.90
1570;DHT22;778;50.120;8.698;2023-07-20T05:25:54;20.80;99.90
1570;DHT22;778;50.120;8.698;2023-07-20T05:28:23;21.00;99.90
1570;DHT22;778;50.120;8.698;2023-07-20T05:30:51;20.90;99.90
1570;DHT22;778;50.120;8.698;2023-07-20T05:33:20;21.20;99.90
1570;DHT22;778;50.120;8.698;2023-07-20T05:35:49;21.60;99.90
1570;DHT22;778;50.120;8.698;2023-07-20T05:38:17;21.60;99.90
1570;DHT22;778;50.120;8.698;2023-07-20T05:40:46;21.60;99.90
1570;DHT22;778;50.120;8.698;2023-07-20T05:43:16;21.80;99.90
1570;DHT22;778;50.120;8.698;2023-07-20T05:45:44;22.00;99.90
1570;DHT22;778;50.120;8.698;2023-07-20T05:48:15;22.00;99.90
1570;DHT22;778;50.120;8.698;2023-07-20T05:50:43;22.20;99.90
1570;DHT22;778;50.120;8.698;2023-07-20T05:53:12;22.50;99.90
1570;DHT22;778;50.120;8.698;2023-07-20T05:55:40;22.60;99.90
1570;DHT22;778;50.120;8.698;2023-07-20T05:58:09;22.70;99.90
1570;DHT22;778;50.120;8.698;2023-07-20T06:00:39;22.50;99.90
1570;DHT22;778;50.120;8.698;2023-07-20T06:03:07;22.60;99.90
1570;DHT22;778;50.120;8.698;2023-07-20T06:05:36;22.80;99.90
1570;DHT22;778;50.120;8.698;2023-07-20T06:08:04;23.00;99.90
1570;DHT22;778;50.120;8.698;2023-07-20T06:10:33;22.90;99.90
1570;DHT22;778;50.120;8.698;2023-07-20T06:13:01;23.00;99.90
1570;DHT22;778;50.120;8.698;2023-07-20T06:15:32;23.10;99.90
1570;DHT22;778;50.120;8.698;2023-07-20T06:18:03;22.90;99.90
1570;DHT22;778;50.120;8.698;2023-07-20T06:20:31;22.40;99.90
1570;DHT22;778;50.120;8.698;2023-07-20T06:23:00;22.20;99.90
1570;DHT22;778;50.120;8.698;2023-07-20T06:25:28;22.10;99.90
1570;DHT22;778;50.120;8.698;2023-07-20T06:27:57;21.70;99.90
1570;DHT22;778;50.120;8.698;2023-07-20T06:30:25;21.50;99.90
1570;DHT22;778;50.120;8.698;2023-07-20T06:32:54;21.60;99.90
1570;DHT22;778;50.120;8.698;2023-07-20T06:35:23;21.40;99.90
1570;DHT22;778;50.120;8.698;2023-07-20T06:37:52;21.40;99.90
1570;DHT22;778;50.120;8.698;2023-07-20T06:40:21;21.30;99.90
1570;DHT22;778;50.120;8.698;2023-07-20T06:42:52;21.10;99.90
1570;DHT22;778;50.120;8.698;2023-07-20T06:45:24;21.00;99.90
1570;DHT22;778;50.120;8.698;2023-07-20T06:47:52;20.90;99.90
1570;DHT22;778;50.120;8.698;2023-07-20T06:50:21;20.70;99.90
1570;DHT22;778;50.120;8.698;2023-07-20T06:52:54;20.70;99.90
1570;DHT22;778;50.120;8.698;2023-07-20T06:55:25;20.90;99.90
1570;DHT22;778;50.120;8.698;2023-07-20T06:57:58;20.80;99.90
1570;DHT22;778;50.120;8.698;2023-07-20T07:00:26;21.10;99.90
1570;DHT22;778;50.120;8.698;2023-07-20T07:02:55;21.50;99.90
1570;DHT22;778;50.120;8.698;2023-07-20T07:05:25;21.30;99.90
1570;DHT22;778;50.120;8.698;2023-07-20T07:08:01;21.30;99.90
1570;DHT22;778;50.120;8.698;2023-07-20T07:10:30;21.20;99.90
1570;DHT22;778;50.120;8.698;2023-07-20T07:12:59;21.30;99.90
1570;DHT22;778;50.120;8.698;2023-07-20T07:15:27;21.30;99.90
1570;DHT22;778;50.120;8.698;2023-07-20T07:17:56;21.40;99.90
1570;DHT22;778;50.120;8.698;2023-07-20T07:20:26;21.80;99.90
1570;DHT22;778;50.120;8.698;2023-07-20T07:22:55;21.90;99.90
1570;DHT22;778;50.120;8.698;2023-07-20T07:25:24;22.30;99.90
1570;DHT22;778;50.120;8.698;2023-07-20T07:27:54;22.70;99.90
1570;DHT22;778;50.120;8.698;2023-07-20T07:30:23;23.10;99.90
1570;DHT22;778;50.120;8.698;2023-07-20T07:32:52;23.70;99.90
1570;DHT22;778;50.120;8.698;2023-07-20T07:35:20;24.00;99.90
1570;DHT22;778;50.120;8.698;2023-07-20T07:37:50;23.90;99.90
1570;DHT22;778;50.120;8.698;2023-07-20T07:40:38;24.50;99.90
1570;DHT22;778;50.120;8.698;2023-07-20T07:43:07;24.80;98.90
1570;DHT22;778;50.120;8.698;2023-07-20T07:45:36;24.80;97.30
1570;DHT22;778;50.120;8.698;2023-07-20T07:48:05;25.10;96.70
1570;DHT22;778;50.120;8.698;2023-07-20T07:50:34;25.40;95.50
1570;DHT22;778;50.120;8.698;2023-07-20T07:53:04;25.00;96.10
1570;DHT22;778;50.120;8.698;2023-07-20T07:55:32;24.30;97.10
1570;DHT22;778;50.120;8.698;2023-07-20T07:58:01;24.00;97.90
1570;DHT22;778;50.120;8.698;2023-07-20T08:00:29;23.90;97.60
1570;DHT22;778;50.120;8.698;2023-07-20T08:02:58;23.60;98.00
1570;DHT22;778;50.120;8.698;2023-07-20T08:05:27;23.40;99.30
1570;DHT22;778;50.120;8.698;2023-07-20T08:07:56;23.00;99.90
1570;DHT22;778;50.120;8.698;2023-07-20T08:10:25;23.30;99.90
1570;DHT22;778;50.120;8.698;2023-07-20T08:12:54;23.70;99.90
1570;DHT22;778;50.120;8.698;2023-07-20T08:15:22;24.10;98.20
1570;DHT22;778;50.120;8.698;2023-07-20T08:17:51;24.00;97.70
1570;DHT22;778;50.120;8.698;2023-07-20T08:20:20;23.60;96.90
1570;DHT22;778;50.120;8.698;2023-07-20T08:22:54;23.70;97.30
1570;DHT22;778;50.120;8.698;2023-07-20T08:25:22;24.50;96.30
1570;DHT22;778;50.120;8.698;2023-07-20T08:27:52;25.20;94.40
1570;DHT22;778;50.120;8.698;2023-07-20T08:30:21;24.70;93.90
1570;DHT22;778;50.120;8.698;2023-07-20T08:32:51;24.90;94.00
1570;DHT22;778;50.120;8.698;2023-07-20T08:35:19;25.10;92.90
1570;DHT22;778;50.120;8.698;2023-07-20T08:37:49;25.20;93.10
1570;DHT22;778;50.120;8.698;2023-07-20T08:40:17;25.20;92.90
1570;DHT22;778;50.120;8.698;2023-07-20T08:42:48;24.90;92.90
1570;DHT22;778;50.120;8.698;2023-07-20T08:45:17;24.80;94.30
1570;DHT22;778;50.120;8.698;2023-07-20T08:47:47;24.50;93.90
1570;DHT22;778;50.120;8.698;2023-07-20T08:50:17;24.40;93.90
1570;DHT22;778;50.120;8.698;2023-07-20T08:52:46;23.90;94.10
1570;DHT22;778;50.120;8.698;2023-07-20T08:55:14;23.90;94.60
1570;DHT22;778;50.120;8.698;2023-07-20T08:57:46;24.20;94.20
1570;DHT22;778;50.120;8.698;2023-07-20T09:00:17;23.70;94.20
1570;DHT22;778;50.120;8.698;2023-07-20T09:02:49;23.80;94.90
1570;DHT22;778;50.120;8.698;2023-07-20T09:05:19;23.80;94.40
1570;DHT22;778;50.120;8.698;2023-07-20T09:07:48;23.80;94.30
1570;DHT22;778;50.120;8.698;2023-07-20T09:10:16;23.50;94.90
1570;DHT22;778;50.120;8.698;2023-07-20T09:12:47;23.50;96.00
1570;DHT22;778;50.120;8.698;2023-07-20T09:15:15;23.50;94.60
1570;DHT22;778;50.120;8.698;2023-07-20T09:17:47;23.70;95.10
1570;DHT22;778;50.120;8.698;2023-07-20T09:20:17;24.20;94.10
1570;DHT22;778;50.120;8.698;2023-07-20T09:22:50;24.40;92.00
1570;DHT22;778;50.120;8.698;2023-07-20T09:25:22;24.60;92.60
1570;DHT22;778;50.120;8.698;2023-07-20T09:27:56;24.40;92.30
1570;DHT22;778;50.120;8.698;2023-07-20T09:30:26;24.10;91.50
1570;DHT22;778;50.120;8.698;2023-07-20T09:32:57;23.80;92.20
1570;DHT22;778;50.120;8.698;2023-07-20T09:35:26;23.80;92.70
1570;DHT22;778;50.120;8.698;2023-07-20T09:38:09;23.50;93.10
1570;DHT22;778;50.120;8.698;2023-07-20T09:40:40;23.40;93.20
1570;DHT22;778;50.120;8.698;2023-07-20T09:43:15;23.50;93.50
1570;DHT22;778;50.120;8.698;2023-07-20T09:45:47;23.40;93.40
1570;DHT22;778;50.120;8.698;2023-07-20T09:48:24;23.30;93.70
1570;DHT22;778;50.120;8.698;2023-07-20T09:50:56;23.40;93.40
1570;DHT22;778;50.120;8.698;2023-07-20T09:53:25;23.20;93.50
1570;DHT22;778;50.120;8.698;2023-07-20T09:55:54;23.40;92.70
1570;DHT22;778;50.120;8.698;2023-07-20T09:58:26;23.50;93.30
1570;DHT22;778;50.120;8.698;2023-07-20T10:00:57;23.60;92.80
1570;DHT22;778;50.120;8.698;2023-07-20T10:03:29;23.90;93.30
1570;DHT22;778;50.120;8.698;2023-07-20T10:06:05;23.70;93.50
1570;DHT22;778;50.120;8.698;2023-07-20T10:08:37;24.30;92.90
1570;DHT22;778;50.120;8.698;2023-07-20T10:11:10;24.80;92.10
1570;DHT22;778;50.120;8.698;2023-07-20T10:13:43;24.90;90.30
1570;DHT22;778;50.120;8.698;2023-07-20T10:16:17;25.30;90.80
1570;DHT22;778;50.120;8.698;2023-07-20T10:18:55;25.30;88.30
1570;DHT22;778;50.120;8.698;2023-07-20T10:21:30;24.80;90.40
1570;DHT22;778;50.120;8.698;2023-07-20T10:24:03;24.90;90.30
1570;DHT22;778;50.120;8.698;2023-07-20T10:26:32;25.00;87.30
1570;DHT22;778;50.120;8.698;2023-07-20T10:29:05;25.00;88.10
1570;DHT22;778;50.120;8.698;2023-07-20T10:31:35;25.20;86.60
1570;DHT22;778;50.120;8.698;2023-07-20T10:34:04;25.60;86.60
1570;DHT22;778;50.120;8.698;2023-07-20T10:36:43;25.80;85.40
1570;DHT22;778;50.120;8.698;2023-07-20T10:39:22;26.00;84.00
1570;DHT22;778;50.120;8.698;2023-07-20T10:42:00;26.20;82.30
1570;DHT22;778;50.120;8.698;2023-07-20T10:44:31;25.90;83.50
1570;DHT22;778;50.120;8.698;2023-07-20T10:47:00;25.70;82.60
1570;DHT22;778;50.120;8.698;2023-07-20T10:49:32;25.60;83.90
1570;DHT22;778;50.120;8.698;2023-07-20T10:52:04;25.80;81.70
1570;DHT22;778;50.120;8.698;2023-07-20T10:54:46;25.70;80.70
1570;DHT22;778;50.120;8.698;2023-07-20T10:57:29;25.70;80.00
1570;DHT22;778;50.120;8.698;2023-07-20T11:00:11;25.80;82.80
1570;DHT22;778;50.120;8.698;2023-07-20T11:02:45;25.80;81.00
1570;DHT22;778;50.120;8.698;2023-07-20T11:05:33;25.60;85.90
1570;DHT22;778;50.120;8.698;2023-07-20T11:08:09;24.80;84.40
1570;DHT22;778;50.120;8.698;2023-07-20T11:10:39;24.60;83.90
1570;DHT22;778;50.120;8.698;2023-07-20T11:13:18;24.70;82.90
1570;DHT22;778;50.120;8.698;2023-07-20T11:16:02;24.80;83.10
1570;DHT22;778;50.120;8.698;2023-07-20T11:18:35;24.50;82.10
1570;DHT22;778;50.120;8.698;2023-07-20T11:21:11;24.70;81.40
1570;DHT22;778;50.120;8.698;2023-07-20T11:23:39;24.60;83.60
1570;DHT22;778;50.120;8.698;2023-07-20T11:26:08;24.80;80.70
1570;DHT22;778;50.120;8.698;2023-07-20T11:28:38;24.80;81.50
1570;DHT22;778;50.120;8.698;2023-07-20T11:31:08;24.90;81.20
1570;DHT22;778;50.120;8.698;2023-07-20T11:33:36;25.00;82.30
1570;DHT22;778;50.120;8.698;2023-07-20T11:36:06;25.30;80.40
1570;DHT22;778;50.120;8.698;2023-07-20T11:38:41;25.50;81.00
1570;DHT22;778;50.120;8.698;2023-07-20T11:41:11;25.70;81.00
1570;DHT22;778;50.120;8.698;2023-07-20T11:43:41;26.10;78.40
1570;DHT22;778;50.120;8.698;2023-07-20T11:46:11;25.60;80.70
1570;DHT22;778;50.120;8.698;2023-07-20T11:48:40;25.50;81.00
1570;DHT22;778;50.120;8.698;2023-07-20T11:51:13;25.30;78.80
1570;DHT22;778;50.120;8.698;2023-07-20T11:53:43;25.30;82.40
1570;DHT22;778;50.120;8.698;2023-07-20T11:56:13;25.00;79.90
1570;DHT22;778;50.120;8.698;2023-07-20T11:58:45;24.90;80.70
1570;DHT22;778;50.120;8.698;2023-07-20T12:01:15;24.70;85.00
1570;DHT22;778;50.120;8.698;2023-07-20T12:03:48;24.60;82.00
1570;DHT22;778;50.120;8.698;2023-07-20T12:06:17;24.60;83.00
1570;DHT22;778;50.120;8.698;2023-07-20T12:08:45;24.60;83.60
1570;DHT22;778;50.120;8.698;2023-07-20T12:11:30;24.60;82.00
1570;DHT22;778;50.120;8.698;2023-07-20T12:14:03;24.40;83.00
1570;DHT22;778;50.120;8.698;2023-07-20T12:16:53;24.60;81.80
1570;DHT22;778;50.120;8.698;2023-07-20T12:19:25;24.80;82.40
1570;DHT22;778;50.120;8.698;2023-07-20T12:21:57;24.90;81.20
1570;DHT22;778;50.120;8.698;2023-07-20T12:24:27;25.00;82.60
1570;DHT22;778;50.120;8.698;2023-07-20T12:26:56;24.90;82.60
1570;DHT22;778;50.120;8.698;2023-07-20T12:29:25;25.20;82.80
1570;DHT22;778;50.120;8.698;2023-07-20T12:31:55;25.10;79.90
1570;DHT22;778;50.120;8.698;2023-07-20T12:34:24;25.10;79.20
1570;DHT22;778;50.120;8.698;2023-07-20T12:36:53;25.00;79.80
1570;DHT22;778;50.120;8.698;2023-07-20T12:39:22;24.90;78.70
1570;DHT22;778;50.120;8.698;2023-07-20T12:41:50;24.90;80.30
1570;DHT22;778;50.120;8.698;2023-07-20T12:44:19;25.00;77.10
1570;DHT22;778;50.120;8.698;2023-07-20T12:46:47;24.90;79.20
1570;DHT22;778;50.120;8.698;2023-07-20T12:49:17;24.80;78.40
1570;DHT22;778;50.120;8.698;2023-07-20T12:51:46;24.80;78.20
1570;DHT22;778;50.120;8.698;2023-07-20T12:54:14;25.00;78.60
1570;DHT22;778;50.120;8.698;2023-07-20T12:56:43;25.00;76.70
1570;DHT22;778;50.120;8.698;2023-07-20T12:59:14;25.20;78.20
1570;DHT22;778;50.120;8.698;2023-07-20T13:01:43;25.20;76.50
1570;DHT22;778;50.120;8.698;2023-07-20T13:04:11;25.40;78.10
1570;DHT22;778;50.120;8.698;2023-07-20T13:06:42;25.20;76.40
1570;DHT22;778;50.120;8.698;2023-07-20T13:09:10;25.20;76.40
1570;DHT22;778;50.120;8.698;2023-07-20T13:11:39;25.20;76.30
1570;DHT22;778;50.120;8.698;2023-07-20T13:14:07;25.10;77.80
1570;DHT22;778;50.120;8.698;2023-07-20T13:16:36;25.20;75.60
1570;DHT22;778;50.120;8.698;2023-07-20T13:19:04;25.30;75.10
1570;DHT22;778;50.120;8.698;2023-07-20T13:21:33;25.30;74.80
1570;DHT22;778;50.120;8.698;2023-07-20T13:24:03;25.50;72.90
1570;DHT22;778;50.120;8.698;2023-07-20T13:26:32;25.50;74.70
1570;DHT22;778;50.120;8.698;2023-07-20T13:29:02;25.70;74.40
1570;DHT22;778;50.120;8.698;2023-07-20T13:31:31;25.70;73.90
1570;DHT22;778;50.120;8.698;2023-07-20T13:34:08;25.70;73.20
1570;DHT22;778;50.120;8.698;2023-07-20T13:36:37;25.90;71.50
1570;DHT22;778;50.120;8.698;2023-07-20T13:39:07;26.00;66.90
1570;DHT22;778;50.120;8.698;2023-07-20T13:41:35;26.00;66.90
1570;DHT22;778;50.120;8.698;2023-07-20T13:44:04;26.10;68.60
1570;DHT22;778;50.120;8.698;2023-07-20T13:46:33;25.90;67.20
1570;DHT22;778;50.120;8.698;2023-07-20T13:49:04;25.60;65.10
1570;DHT22;778;50.120;8.698;2023-07-20T13:51:39;25.50;67.10
1570;DHT22;778;50.120;8.698;2023-07-20T13:54:10;25.40;68.50
1570;DHT22;778;50.120;8.698;2023-07-20T13:56:43;25.40;67.60
1570;DHT22;778;50.120;8.698;2023-07-20T13:59:11;25.40;65.90
1570;DHT22;778;50.120;8.698;2023-07-20T14:01:41;25.40;68.40
1570;DHT22;778;50.120;8.698;2023-07-20T14:04:09;25.60;67.60
1570;DHT22;778;50.120;8.698;2023-07-20T14:06:38;25.60;65.40
1570;DHT22;778;50.120;8.698;2023-07-20T14:09:08;25.50;65.00
1570;DHT22;778;50.120;8.698;2023-07-20T14:11:37;25.50;66.10
1570;DHT22;778;50.120;8.698;2023-07-20T14:14:08;25.50;63.60
1570;DHT22;778;50.120;8.698;2023-07-20T14:16:36;25.50;64.70
1570;DHT22;778;50.120;8.698;2023-07-20T14:19:05;25.60;62.40
1570;DHT22;778;50.120;8.698;2023-07-20T14:21:34;25.60;64.60
1570;DHT22;778;50.120;8.698;2023-07-20T14:24:05;25.60;64.30
1570;DHT22;778;50.120;8.698;2023-07-20T14:26:37;25.50;63.80
1570;DHT22;778;50.120;8.698;2023-07-20T14:29:10;25.50;63.90
1570;DHT22;778;50.120;8.698;2023-07-20T14:31:38;25.60;64.00
1570;DHT22;778;50.120;8.698;2023-07-20T14:34:07;25.60;65.40
1570;DHT22;778;50.120;8.698;2023-07-20T14:36:36;25.50;63.40
1570;DHT22;778;50.120;8.698;2023-07-20T14:39:05;25.40;64.00
1570;DHT22;778;50.120;8.698;2023-07-20T14:41:33;25.50;63.80
1570;DHT22;778;50.120;8.698;2023-07-20T14:44:03;25.50;63.80
1570;DHT22;778;50.120;8.698;2023-07-20T14:46:32;25.40;65.30
1570;DHT22;778;50.120;8.698;2023-07-20T14:49:00;25.40;63.30
1570;DHT22;778;50.120;8.698;2023-07-20T14:51:29;25.50;64.80
1570;DHT22;778;50.120;8.698;2023-07-20T14:54:03;25.50;64.30
1570;DHT22;778;50.120;8.698;2023-07-20T14:56:33;25.40;64.60
1570;DHT22;778;50.120;8.698;2023-07-20T14:59:03;25.50;64.30
1570;DHT22;778;50.120;8.698;2023-07-20T15:01:32;25.60;64.90
1570;DHT22;778;50.120;8.698;2023-07-20T15:04:01;25.60;63.70
1570;DHT22;778;50.120;8.698;2023-07-20T15:06:29;25.60;62.80
1570;DHT22;778;50.120;8.698;2023-07-20T15:08:59;25.50;63.10
1570;DHT22;778;50.120;8.698;2023-07-20T15:11:28;25.50;64.00
1570;DHT22;778;50.120;8.698;2023-07-20T15:13:56;25.30;62.80
1570;DHT22;778;50.120;8.698;2023-07-20T15:16:26;25.30;63.00
1570;DHT22;778;50.120;8.698;2023-07-20T15:18:55;25.50;62.50
1570;DHT22;778;50.120;8.698;2023-07-20T15:21:23;25.50;62.30
1570;DHT22;778;50.120;8.698;2023-07-20T15:23:52;25.50;63.30
1570;DHT22;778;50.120;8.698;2023-07-20T15:26:21;25.40;63.60
1570;DHT22;778;50.120;8.698;2023-07-20T15:28:50;25.30;63.30
1570;DHT22;778;50.120;8.698;2023-07-20T15:31:19;25.30;62.80
1570;DHT22;778;50.120;8.698;2023-07-20T15:34:09;25.30;63.90
1570;DHT22;778;50.120;8.698;2023-07-20T15:36:40;25.30;62.80
1570;DHT22;778;50.120;8.698;2023-07-20T15:39:09;25.40;63.80
1570;DHT22;778;50.120;8.698;2023-07-20T15:41:37;25.40;63.10
1570;DHT22;778;50.120;8.698;2023-07-20T15:44:06;25.50;60.70
1570;DHT22;778;50.120;8.698;2023-07-20T15:46:45;25.40;62.30
1570;DHT22;778;50.120;8.698;2023-07-20T15:49:17;25.30;62.30
1570;DHT22;778;50.120;8.698;2023-07-20T15:51:46;25.40;62.80
1570;DHT22;778;50.120;8.698;2023-07-20T15:54:15;25.40;61.30
1570;DHT22;778;50.120;8.698;2023-07-20T15:56:44;25.40;59.50
1570;DHT22;778;50.120;8.698;2023-07-20T15:59:13;25.50;59.50
1570;DHT22;778;50.120;8.698;2023-07-20T16:01:43;25.30;59.60
1570;DHT22;778;50.120;8.698;2023-07-20T16:04:13;25.30;58.80
1570;DHT22;778;50.120;8.698;2023-07-20T16:06:43;25.10;58.70
1570;DHT22;778;50.120;8.698;2023-07-20T16:09:12;24.90;58.80
1570;DHT22;778;50.120;8.698;2023-07-20T16:11:42;24.90;59.50
1570;DHT22;778;50.120;8.698;2023-07-20T16:14:11;24.90;58.60
1570;DHT22;778;50.120;8.698;2023-07-20T16:16:42;24.80;58.10
1570;DHT22;778;50.120;8.698;2023-07-20T16:19:11;24.90;58.10
1570;DHT22;778;50.120;8.698;2023-07-20T16:21:39;25.10;60.00
1570;DHT22;778;50.120;8.698;2023-07-20T16:24:09;25.10;60.60
1570;DHT22;778;50.120;8.698;2023-07-20T16:26:38;25.10;59.60
1570;DHT22;778;50.120;8.698;2023-07-20T16:29:11;25.10;58.80
1570;DHT22;778;50.120;8.698;2023-07-20T16:31:43;25.10;58.40
1570;DHT22;778;50.120;8.698;2023-07-20T16:34:14;24.90;58.80
1570;DHT22;778;50.120;8.698;2023-07-20T16:36:43;25.00;58.70